Time;durP1;ratioP1;P1;durP2;ratioP2;P2;SDS_P1;SDS_P2;PMS_P1;PMS_P2;Temp;Humidity;BMP_temperature;BMP_pressure;BME280_temperature;BME280_humidity;BME280_pressure;Samples;Min_cycle;Max_cycle;Signal;HPM_P1;HPM_P2
2023/01/10 00:01:26;;;;;;;3.00;1.80;;;;;;;16.55;33.67;100184.97;5041070;28;20451;-93
2023/01/10 00:03:52;;;;;;;3.70;2.20;;;;;;;16.55;33.41;100185.78;5040870;28;20021;-93
2023/01/10 00:06:18;;;;;;;3.75;2.17;;;;;;;16.57;33.59;100199.88;5040805;28;20028;-94
2023/01/10 00:08:43;;;;;;;2.50;2.13;;;;;;;16.56;33.68;100200.94;5040794;28;20035;-93
2023/01/10 00:13:54;;;;;;;3.25;2.05;;;;;;;16.60;33.41;100201.28;5060253;28;20520;-92
2023/01/10 00:16:19;;;;;;;3.08;2.28;;;;;;;16.57;33.43;100207.97;5040887;28;20089;-92
2023/01/10 00:18:45;;;;;;;3.25;2.30;;;;;;;16.58;33.47;100204.22;5057120;28;20040;-93
2023/01/10 00:21:11;;;;;;;3.22;2.08;;;;;;;16.59;33.51;100188.84;5056854;28;20406;-92
2023/01/10 00:23:37;;;;;;;3.53;2.40;;;;;;;16.55;33.46;100185.78;5040584;28;20043;-92
2023/01/10 00:26:03;;;;;;;3.30;2.40;;;;;;;16.55;33.27;100180.41;5057423;28;20104;-91
2023/01/10 00:28:33;;;;;;;3.50;2.10;;;;;;;16.51;33.38;100195.41;5040575;28;20035;-92
2023/01/10 00:31:00;;;;;;;2.97;2.03;;;;;;;16.60;33.23;100206.69;5041799;28;20023;-93
2023/01/10 00:33:27;;;;;;;2.92;2.25;;;;;;;16.42;33.82;100172.50;5041021;28;20028;-93
2023/01/10 00:35:52;;;;;;;3.45;2.22;;;;;;;16.61;33.56;100197.53;5057028;28;20021;-92
2023/01/10 00:38:18;;;;;;;3.03;2.40;;;;;;;16.61;33.46;100194.81;5056990;28;20372;-92
2023/01/10 00:40:44;;;;;;;3.67;2.30;;;;;;;16.45;33.20;100172.06;5056667;28;20064;-92
2023/01/10 00:45:54;;;;;;;3.20;2.20;;;;;;;16.52;33.33;100199.75;5059677;28;20067;-92
2023/01/10 00:48:20;;;;;;;2.80;1.90;;;;;;;16.51;33.45;100187.31;5040447;28;20427;-92
2023/01/10 00:50:45;;;;;;;3.13;2.13;;;;;;;16.58;33.02;100203.41;5040080;28;20025;-90
2023/01/10 00:53:11;;;;;;;3.20;2.10;;;;;;;16.56;33.11;100206.34;5039880;28;20077;-93
2023/01/10 00:55:36;;;;;;;2.92;1.90;;;;;;;16.53;33.18;100196.00;5056767;28;20024;-92
2023/01/10 00:58:02;;;;;;;3.10;2.38;;;;;;;16.52;33.32;100194.34;5056944;28;20062;-91
2023/01/10 01:00:28;;;;;;;2.42;2.20;;;;;;;16.61;33.27;100200.22;5039773;28;20039;-93
2023/01/10 01:02:54;;;;;;;4.13;2.20;;;;;;;16.50;33.35;100178.38;5039816;28;20111;-93
2023/01/10 01:05:20;;;;;;;2.72;1.95;;;;;;;16.59;33.60;100196.94;5056638;28;20137;-93
2023/01/10 01:07:49;;;;;;;2.50;2.10;;;;;;;16.62;33.44;100209.97;5040197;28;20029;-92
2023/01/10 01:10:27;;;;;;;3.45;2.50;;;;;;;16.59;33.06;100199.63;5056365;28;20024;-94
2023/01/10 01:13:10;;;;;;;3.03;2.35;;;;;;;16.59;33.55;100196.94;5042925;28;20032;-92
2023/01/10 01:15:35;;;;;;;2.17;1.77;;;;;;;16.60;33.59;100210.19;5040854;28;20116;-92
2023/01/10 01:18:01;;;;;;;3.08;2.20;;;;;;;16.61;33.49;100202.91;5039611;28;20069;-92
2023/01/10 01:20:27;;;;;;;2.75;1.90;;;;;;;16.61;33.45;100202.91;5039173;28;20043;-92
2023/01/10 01:22:56;;;;;;;3.88;2.22;;;;;;;16.61;33.44;100195.66;5056109;28;20371;-92
2023/01/10 01:25:21;;;;;;;2.83;2.10;;;;;;;16.51;33.09;100182.75;5056382;28;20109;-94
2023/01/10 01:27:47;;;;;;;3.17;2.20;;;;;;;16.58;33.25;100196.13;5072641;28;20028;-92
2023/01/10 01:30:13;;;;;;;3.17;2.10;;;;;;;16.62;33.60;100189.19;5039254;28;20052;-92
2023/01/10 01:32:39;;;;;;;3.35;2.50;;;;;;;16.63;33.50;100190.84;5055874;28;20091;-92
2023/01/10 01:35:06;;;;;;;2.63;1.70;;;;;;;16.59;33.38;100181.59;5038966;28;20024;-92
2023/01/10 01:37:32;;;;;;;2.25;1.98;;;;;;;16.62;33.50;100175.72;5055784;28;20020;-93
2023/01/10 01:39:58;;;;;;;2.30;2.10;;;;;;;16.64;33.43;100170.94;5056052;28;20540;-93
2023/01/10 01:42:29;;;;;;;4.93;2.20;;;;;;;16.63;33.38;100169.28;5055651;28;20020;-93
2023/01/10 01:45:33;;;;;;;3.08;1.98;;;;;;;16.64;33.40;100165.53;5056132;28;20028;-90
2023/01/10 01:48:05;;;;;;;4.13;2.17;;;;;;;16.66;33.43;100168.81;5070081;28;20123;-92
2023/01/10 01:50:31;;;;;;;2.90;2.05;;;;;;;16.69;33.39;100167.50;5071648;28;20067;-92
2023/01/10 01:52:57;;;;;;;3.53;2.30;;;;;;;16.59;33.36;100161.88;5073820;28;20471;-92
2023/01/10 01:55:23;;;;;;;2.92;2.00;;;;;;;16.64;33.34;100164.69;5039190;28;20033;-92
2023/01/10 01:57:49;;;;;;;3.40;2.35;;;;;;;16.62;33.50;100162.22;5055713;28;20459;-93
2023/01/10 02:00:15;;;;;;;3.08;2.22;;;;;;;16.58;33.17;100150.25;5039006;28;20035;-92
2023/01/10 02:02:46;;;;;;;2.10;1.83;;;;;;;16.61;33.08;100163.28;5039198;28;20029;-93
2023/01/10 02:05:13;;;;;;;3.28;2.30;;;;;;;16.61;33.27;100141.72;5058964;28;20040;-92
2023/01/10 02:07:41;;;;;;;3.38;2.25;;;;;;;16.65;33.54;100137.47;5056116;28;20029;-92
2023/01/10 02:10:06;;;;;;;3.17;2.13;;;;;;;16.67;33.49;100153.44;5076078;28;20035;-93
2023/01/10 02:12:32;;;;;;;3.13;2.10;;;;;;;16.65;33.12;100140.19;5082779;28;20112;-93
2023/01/10 02:14:58;;;;;;;2.40;1.98;;;;;;;16.59;33.28;100118.69;5059445;28;20108;-92
2023/01/10 02:17:23;;;;;;;2.30;1.92;;;;;;;16.59;33.20;100134.88;5039888;28;20028;-92
2023/01/10 02:20:04;;;;;;;3.50;2.10;;;;;;;16.68;33.15;100138.91;5038483;28;20052;-93
2023/01/10 02:22:53;;;;;;;3.50;2.45;;;;;;;16.59;33.30;100129.50;5038553;28;20025;-92
2023/01/10 02:25:39;;;;;;;2.53;1.90;;;;;;;16.58;33.38;100128.69;5071836;28;20024;-93
2023/01/10 02:28:21;;;;;;;2.80;2.03;;;;;;;16.60;32.99;100128.44;5071883;28;20020;-92
2023/01/10 02:31:38;;;;;;;3.30;2.30;;;;;;;16.63;33.33;100131.50;5056592;28;20028;-92
2023/01/10 02:34:14;;;;;;;2.78;2.03;;;;;;;16.64;33.20;100135.84;5063688;28;20047;-93
2023/01/10 02:36:50;;;;;;;3.60;2.20;;;;;;;16.59;33.40;100124.09;5054872;28;20379;-94
2023/01/10 02:39:22;;;;;;;2.55;2.00;;;;;;;16.65;33.44;100140.19;5055241;28;20043;-92
2023/01/10 02:42:04;;;;;;;2.50;2.08;;;;;;;16.68;33.24;100144.31;5071450;28;20029;-93
2023/01/10 02:44:40;;;;;;;3.78;2.28;;;;;;;16.65;33.17;100142.06;5055687;28;20383;-93
2023/01/10 02:47:07;;;;;;;2.78;2.00;;;;;;;16.68;33.09;100136.22;5071416;28;20020;-93
2023/01/10 02:49:46;;;;;;;3.97;2.72;;;;;;;16.65;33.31;100140.19;5055127;28;20360;-93
2023/01/10 02:52:14;;;;;;;2.13;1.85;;;;;;;16.63;33.32;100142.28;5038552;28;21234;-92
2023/01/10 02:54:40;;;;;;;2.33;2.00;;;;;;;16.61;33.21;100138.16;5038401;28;20356;-94
2023/01/10 02:57:15;;;;;;;4.30;2.13;;;;;;;16.70;33.16;100143.00;5054778;28;20035;-92
2023/01/10 02:59:59;;;;;;;2.78;2.00;;;;;;;16.63;33.34;100138.78;5071249;28;20456;-93
2023/01/10 03:02:42;;;;;;;2.28;2.00;;;;;;;16.67;33.26;100150.75;5040356;28;20372;-91
2023/01/10 03:05:21;;;;;;;2.58;2.00;;;;;;;16.72;33.18;100156.25;5054499;28;20043;-93
2023/01/10 03:08:27;;;;;;;2.92;2.00;;;;;;;16.61;33.20;100136.31;5071084;28;20489;-92
2023/01/10 03:10:59;;;;;;;2.60;2.05;;;;;;;16.62;33.23;100132.53;5049205;28;20039;-91
2023/01/10 03:13:36;;;;;;;3.42;2.30;;;;;;;16.73;32.91;100148.97;5038450;28;20071;-92
2023/01/10 03:16:02;;;;;;;3.45;2.17;;;;;;;16.63;33.08;100142.28;5054471;28;20028;-92
2023/01/10 03:18:32;;;;;;;3.08;2.10;;;;;;;16.63;33.33;100142.28;5055194;28;20062;-92
2023/01/10 03:20:57;;;;;;;3.38;2.17;;;;;;;16.64;33.25;100137.72;5058294;28;20024;-92
2023/01/10 03:23:23;;;;;;;2.40;1.85;;;;;;;16.64;33.26;100143.94;5041412;28;20025;-93
2023/01/10 03:25:48;;;;;;;3.80;2.20;;;;;;;16.65;33.05;100140.19;5041417;28;20128;-92
2023/01/10 03:28:32;;;;;;;3.25;1.95;;;;;;;16.62;33.15;100135.25;5058232;28;20077;-91
2023/01/10 03:31:12;;;;;;;3.90;2.40;;;;;;;16.69;33.23;100143.22;5041443;28;20035;-92
2023/01/10 03:33:38;;;;;;;2.47;1.80;;;;;;;16.60;33.14;100131.97;5058048;28;20033;-93
2023/01/10 03:36:30;;;;;;;3.55;2.28;;;;;;;16.67;33.21;100132.66;5057885;28;20027;-92
2023/01/10 03:39:32;;;;;;;3.00;2.10;;;;;;;16.61;33.18;100128.22;5074654;28;20056;-92
2023/01/10 03:44:42;;;;;;;3.78;2.22;;;;;;;16.68;33.40;100136.22;5041654;28;20541;-91
2023/01/10 03:45:23;;;;;;;2.35;1.88;;;;;;;16.62;33.34;100119.06;5073199;28;20040;-93
2023/01/10 03:47:49;;;;;;;3.10;2.25;;;;;;;16.55;33.26;100112.16;5041573;28;20511;-92
2023/01/10 03:50:20;;;;;;;3.75;2.33;;;;;;;16.68;33.33;100134.31;5057717;28;20031;-92
2023/01/10 03:52:46;;;;;;;3.70;2.30;;;;;;;16.64;32.94;100124.22;5057823;28;20384;-92
2023/01/10 03:55:13;;;;;;;3.90;2.45;;;;;;;16.63;33.36;100126.09;5057448;28;20069;-92
2023/01/10 03:57:41;;;;;;;2.95;2.10;;;;;;;16.65;33.24;100121.28;5057749;28;20040;-92
2023/01/10 04:00:08;;;;;;;2.80;2.00;;;;;;;16.63;32.80;100130.69;5057474;28;20487;-92
2023/01/10 04:02:33;;;;;;;3.58;2.15;;;;;;;16.67;33.15;100118.38;5041056;28;20489;-91
2023/01/10 04:04:59;;;;;;;2.65;1.95;;;;;;;16.63;33.18;100115.31;5057395;28;20146;-93
2023/01/10 04:07:28;;;;;;;2.65;1.75;;;;;;;16.72;33.18;100121.19;5040618;28;20029;-92
2023/01/10 04:09:53;;;;;;;3.00;1.90;;;;;;;16.68;33.09;100118.13;5057443;28;20020;-92
2023/01/10 04:12:19;;;;;;;3.90;2.33;;;;;;;16.64;33.18;100113.44;5057256;28;20081;-91
2023/01/10 04:14:45;;;;;;;3.00;2.35;;;;;;;16.65;33.13;100107.00;5040704;28;20023;-92
2023/01/10 04:17:12;;;;;;;2.40;1.80;;;;;;;16.65;33.20;100105.09;5057347;28;20041;-91
2023/01/10 04:19:37;;;;;;;4.03;2.38;;;;;;;16.70;33.11;100116.00;5057042;28;20384;-92
2023/01/10 04:22:04;;;;;;;2.55;1.73;;;;;;;16.70;33.11;100109.81;5040289;28;20081;-91
2023/01/10 04:24:30;;;;;;;3.65;2.38;;;;;;;16.62;33.17;100102.88;5040815;28;20065;-91
2023/01/10 04:26:56;;;;;;;2.40;2.00;;;;;;;16.64;32.92;100095.38;5056932;28;20028;-91
2023/01/10 04:29:22;;;;;;;2.78;2.30;;;;;;;16.63;33.15;100103.72;5073030;28;20439;-91
2023/01/10 04:31:48;;;;;;;2.22;1.90;;;;;;;16.67;33.24;100094.88;5056846;28;20475;-93
2023/01/10 04:34:13;;;;;;;2.85;2.00;;;;;;;16.69;33.17;100109.00;5040247;28;20024;-91
2023/01/10 04:36:39;;;;;;;3.28;2.30;;;;;;;16.67;33.13;100100.28;5056820;28;20464;-92
2023/01/10 04:39:07;;;;;;;2.08;1.83;;;;;;;16.68;33.16;100112.72;5040073;28;20028;-90
2023/01/10 04:41:33;;;;;;;3.45;2.15;;;;;;;16.69;33.03;100098.19;5056800;28;20499;-91
2023/01/10 04:43:59;;;;;;;3.17;1.90;;;;;;;16.73;33.15;100109.34;5056695;28;20024;-92
2023/01/10 04:46:25;;;;;;;2.33;1.90;;;;;;;16.66;33.16;100090.56;5056582;28;20020;-91
2023/01/10 04:48:51;;;;;;;2.97;2.00;;;;;;;16.67;33.04;100096.78;5056654;28;20112;-92
2023/01/10 04:51:17;;;;;;;2.80;2.00;;;;;;;16.73;33.11;100100.41;5056338;28;20081;-91
2023/01/10 04:53:42;;;;;;;2.83;2.15;;;;;;;16.73;33.00;100103.94;5056649;28;20059;-91
2023/01/10 04:56:08;;;;;;;4.00;2.40;;;;;;;16.66;33.03;100097.81;5056390;28;20085;-91
2023/01/10 04:58:35;;;;;;;2.78;1.95;;;;;;;16.68;33.13;100101.13;5039720;28;20020;-91
2023/01/10 05:01:11;;;;;;;2.70;2.00;;;;;;;16.68;33.10;100093.84;5039728;28;20059;-93
2023/01/10 05:03:37;;;;;;;2.58;2.10;;;;;;;16.65;33.20;100091.63;5056294;28;20051;-92
2023/01/10 05:06:03;;;;;;;2.33;2.08;;;;;;;16.63;33.12;100077.53;5056299;28;20428;-92
2023/01/10 05:08:29;;;;;;;2.70;2.22;;;;;;;16.66;33.21;100087.88;5039538;28;20684;-92
2023/01/10 05:10:54;;;;;;;3.47;1.98;;;;;;;16.70;33.10;100094.44;5056246;28;20021;-92
2023/01/10 05:13:20;;;;;;;2.60;2.00;;;;;;;16.71;33.11;100093.38;5056057;28;20531;-92
2023/01/10 05:15:46;;;;;;;2.55;2.20;;;;;;;16.76;33.07;100092.66;5056339;28;20082;-92
2023/01/10 05:18:11;;;;;;;3.03;2.35;;;;;;;16.71;33.21;100096.06;5056135;28;20066;-92
2023/01/10 05:20:37;;;;;;;2.70;2.10;;;;;;;16.68;33.03;100095.72;5039175;28;20448;-92
2023/01/10 05:23:03;;;;;;;3.78;2.17;;;;;;;16.75;33.02;100100.97;5056499;28;20108;-91
2023/01/10 05:25:28;;;;;;;2.88;2.05;;;;;;;16.71;32.99;100101.47;5039229;28;20031;-92
2023/01/10 05:27:57;;;;;;;2.90;2.08;;;;;;;16.74;33.04;100107.44;5056035;28;20059;-93
2023/01/10 05:30:22;;;;;;;2.65;2.08;;;;;;;16.63;33.07;100093.72;5039559;28;20032;-92
2023/01/10 05:32:48;;;;;;;3.38;2.22;;;;;;;16.62;33.19;100089.38;5039003;28;20021;-92
2023/01/10 05:35:14;;;;;;;3.50;2.25;;;;;;;16.64;33.00;100083.75;5055523;28;20070;-92
2023/01/10 05:37:39;;;;;;;2.83;1.85;;;;;;;16.73;33.05;100103.09;5072313;28;20083;-92
2023/01/10 05:40:09;;;;;;;2.72;2.17;;;;;;;16.70;33.19;100094.44;5055564;28;20077;-92
2023/01/10 05:42:37;;;;;;;3.80;2.28;;;;;;;16.74;32.91;100096.66;5039103;28;20024;-93
2023/01/10 05:45:06;;;;;;;2.75;2.00;;;;;;;16.73;32.98;100087.75;5055464;28;20027;-92
2023/01/10 05:47:32;;;;;;;3.10;2.22;;;;;;;16.72;33.14;100080.69;5055091;28;20119;-92
2023/01/10 05:49:58;;;;;;;2.70;2.10;;;;;;;16.64;33.18;100073.81;5055185;28;20593;-92
2023/01/10 05:52:23;;;;;;;3.72;2.30;;;;;;;16.71;33.19;100081.75;5039789;28;20091;-92
2023/01/10 05:54:49;;;;;;;2.70;1.98;;;;;;;16.73;33.10;100078.81;5056182;28;20024;-92
2023/01/10 05:57:15;;;;;;;2.50;1.80;;;;;;;16.73;33.01;100065.31;5040566;28;20058;-91
2023/01/10 05:59:40;;;;;;;3.80;2.33;;;;;;;16.69;33.03;100055.03;5068848;28;20055;-91
2023/01/10 06:02:06;;;;;;;2.35;1.85;;;;;;;16.68;33.17;100064.16;5055525;28;20091;-92
2023/01/10 06:04:32;;;;;;;3.00;2.17;;;;;;;16.69;33.12;100062.28;5056425;28;20103;-91
2023/01/10 06:06:57;;;;;;;2.53;1.90;;;;;;;16.67;33.19;100049.03;5059696;28;20028;-90
2023/01/10 06:09:23;;;;;;;2.40;1.90;;;;;;;16.76;33.12;100070.25;5063778;28;20056;-92
2023/01/10 06:11:48;;;;;;;2.72;1.92;;;;;;;16.69;33.04;100071.22;5058305;28;20039;-92
2023/01/10 06:14:18;;;;;;;2.70;1.75;;;;;;;16.66;33.17;100060.88;5057269;28;20028;-91
2023/01/10 06:16:46;;;;;;;2.55;2.10;;;;;;;16.71;33.08;100057.47;5039685;28;20353;-92
2023/01/10 06:19:14;;;;;;;2.47;1.88;;;;;;;16.70;33.03;100056.66;5055487;28;20036;-92
2023/01/10 06:21:40;;;;;;;3.58;2.20;;;;;;;16.70;33.13;100062.03;5055360;28;20085;-92
2023/01/10 06:24:06;;;;;;;2.45;1.77;;;;;;;16.79;33.06;100070.59;5071785;28;20016;-92
2023/01/10 06:26:33;;;;;;;2.40;1.80;;;;;;;16.73;32.99;100065.31;5038458;28;20387;-92
2023/01/10 06:28:59;;;;;;;2.63;1.98;;;;;;;16.73;33.17;100062.63;5055387;28;20060;-92
2023/01/10 06:31:25;;;;;;;3.03;2.10;;;;;;;16.70;33.08;100062.03;5055103;28;20119;-94
2023/01/10 06:33:51;;;;;;;2.72;1.98;;;;;;;16.77;33.06;100074.59;5038307;28;20035;-92
2023/01/10 06:36:17;;;;;;;2.05;1.80;;;;;;;16.74;32.97;100075.06;5055043;28;20033;-91
2023/01/10 06:38:42;;;;;;;2.80;2.00;;;;;;;16.64;33.14;100052.22;5038188;28;20602;-92
2023/01/10 06:41:14;;;;;;;2.70;2.08;;;;;;;16.70;33.03;100064.75;5038360;28;20467;-93
2023/01/10 06:43:46;;;;;;;2.35;1.65;;;;;;;16.66;33.04;100060.88;5039469;28;20020;-93
2023/01/10 06:46:15;;;;;;;2.65;1.98;;;;;;;16.74;32.95;100066.97;5055931;28;20028;-93
2023/01/10 06:48:42;;;;;;;2.58;2.00;;;;;;;16.76;33.09;100067.56;5055243;28;20391;-92
2023/01/10 06:51:08;;;;;;;2.35;2.00;;;;;;;16.75;32.99;100068.59;5038437;28;20461;-93
2023/01/10 06:53:34;;;;;;;2.58;2.08;;;;;;;16.73;32.98;100065.31;5040745;28;20126;-92
2023/01/10 06:56:01;;;;;;;2.60;2.00;;;;;;;16.73;32.80;100060.78;5042001;28;20025;-92
2023/01/10 06:58:27;;;;;;;3.17;2.35;;;;;;;16.73;33.18;100060.78;5042483;28;20545;-92
2023/01/10 07:00:53;;;;;;;2.58;1.90;;;;;;;16.73;33.11;100065.31;5058708;28;20052;-91
2023/01/10 07:03:19;;;;;;;3.13;2.03;;;;;;;16.75;33.01;100060.50;5058519;28;20024;-92
2023/01/10 07:05:45;;;;;;;2.58;2.05;;;;;;;16.70;33.04;100050.44;5058758;28;20024;-93
2023/01/10 07:08:10;;;;;;;2.28;1.60;;;;;;;16.73;32.95;100051.84;5058536;28;20029;-92
2023/01/10 07:10:38;;;;;;;2.72;1.98;;;;;;;16.69;33.15;100048.78;5041795;28;20364;-92
2023/01/10 07:13:04;;;;;;;2.67;1.95;;;;;;;16.72;33.18;100059.13;5059108;28;20086;-92
2023/01/10 07:15:32;;;;;;;2.65;1.92;;;;;;;16.74;33.08;100056.19;5041607;28;20472;-92
2023/01/10 07:17:57;;;;;;;2.80;1.92;;;;;;;16.73;33.07;100055.38;5041732;28;20036;-92
2023/01/10 07:20:23;;;;;;;2.58;1.92;;;;;;;16.77;33.12;100066.50;5041427;28;20048;-94
2023/01/10 07:22:58;;;;;;;2.65;1.85;;;;;;;16.75;33.14;100063.19;5042641;28;20576;-92
2023/01/10 07:25:24;;;;;;;2.85;2.10;;;;;;;16.71;33.01;100052.06;5043633;28;20032;-93
2023/01/10 07:27:49;;;;;;;2.80;2.30;;;;;;;16.77;33.01;100066.50;5045284;28;20023;-92
2023/01/10 07:30:15;;;;;;;2.55;1.73;;;;;;;16.70;33.18;100067.44;5075825;28;20033;-92
2023/01/10 07:32:41;;;;;;;2.75;1.80;;;;;;;16.76;33.00;100075.66;5078433;28;20028;-90
2023/01/10 07:35:07;;;;;;;3.05;1.90;;;;;;;16.76;33.11;100075.66;5092642;28;20218;-92
2023/01/10 07:37:35;;;;;;;2.20;1.92;;;;;;;16.71;33.10;100070.94;5046995;28;20486;-92
2023/01/10 07:40:01;;;;;;;2.88;2.03;;;;;;;16.73;33.00;100081.50;5044526;28;20105;-93
2023/01/10 07:42:26;;;;;;;2.33;1.75;;;;;;;16.75;32.94;100084.78;5041807;28;20115;-92
2023/01/10 07:44:52;;;;;;;2.50;1.80;;;;;;;16.73;33.14;100076.97;5041593;28;20129;-93
2023/01/10 07:47:21;;;;;;;2.63;1.88;;;;;;;16.69;33.03;100065.81;5041278;28;20024;-94
2023/01/10 07:49:46;;;;;;;2.85;2.00;;;;;;;16.81;32.94;100062.28;5057870;28;20039;-93
2023/01/10 07:52:12;;;;;;;2.85;2.10;;;;;;;16.78;32.66;100065.44;5041261;28;20028;-92
2023/01/10 07:54:40;;;;;;;2.13;1.60;;;;;;;16.76;32.97;100070.25;5041139;28;20050;-94
2023/01/10 07:57:05;;;;;;;2.08;1.77;;;;;;;16.68;32.96;100052.56;5074755;28;20028;-92
2023/01/10 07:59:31;;;;;;;3.65;2.40;;;;;;;16.77;33.07;100069.22;5057816;28;20063;-93
2023/01/10 08:01:57;;;;;;;2.42;1.70;;;;;;;16.77;32.90;100061.13;5041004;28;20122;-92
2023/01/10 08:04:22;;;;;;;1.80;1.45;;;;;;;16.74;33.06;100050.78;5040005;28;20052;-92
2023/01/10 08:06:48;;;;;;;3.45;1.92;;;;;;;16.77;32.89;100050.31;5040909;28;20119;-93
2023/01/10 08:09:16;;;;;;;2.30;2.00;;;;;;;16.75;32.98;100052.41;5057399;28;20082;-92
2023/01/10 08:11:42;;;;;;;2.33;1.70;;;;;;;16.76;33.03;100051.38;5058031;28;20051;-93
2023/01/10 08:14:07;;;;;;;2.28;1.98;;;;;;;16.76;32.96;100049.47;5057585;28;20537;-93
2023/01/10 08:16:33;;;;;;;2.63;1.80;;;;;;;16.73;32.99;100049.13;5040920;28;20039;-91
2023/01/10 08:18:59;;;;;;;4.00;2.00;;;;;;;16.80;32.89;100060.63;5057003;28;20055;-92
2023/01/10 08:21:24;;;;;;;2.35;2.00;;;;;;;16.77;33.03;100063.81;5057323;28;20038;-93
2023/01/10 08:23:50;;;;;;;2.15;1.80;;;;;;;16.74;32.97;100062.38;5074076;28;20104;-92
2023/01/10 08:26:17;;;;;;;2.38;1.80;;;;;;;16.72;33.16;100064.50;5057235;28;20029;-92
2023/01/10 08:28:42;;;;;;;2.72;1.92;;;;;;;16.75;32.96;100057.81;5040463;28;20112;-93
2023/01/10 08:31:08;;;;;;;3.45;2.03;;;;;;;16.70;32.95;100058.53;5056945;28;20383;-92
2023/01/10 08:33:36;;;;;;;3.30;1.98;;;;;;;16.71;32.93;100058.31;5057157;28;20028;-92
2023/01/10 08:36:02;;;;;;;2.95;1.85;;;;;;;16.79;32.90;100056.28;5040401;28;20036;-92
2023/01/10 08:38:28;;;;;;;2.50;1.80;;;;;;;16.78;32.98;100057.34;5040392;28;20249;-92
2023/01/10 08:40:56;;;;;;;2.88;1.92;;;;;;;16.80;33.01;100063.31;5040160;28;20029;-92
2023/01/10 08:43:21;;;;;;;3.63;2.30;;;;;;;16.78;33.23;100057.34;5040476;28;20071;-92
2023/01/10 08:45:48;;;;;;;2.20;1.90;;;;;;;16.69;33.17;100044.22;5056811;28;20190;-92
2023/01/10 08:48:14;;;;;;;3.55;2.03;;;;;;;16.68;33.19;100045.28;5073290;28;20051;-91
2023/01/10 08:50:39;;;;;;;4.68;2.20;;;;;;;16.75;33.05;100049.72;5056870;28;20056;-92
2023/01/10 08:53:06;;;;;;;2.30;2.00;;;;;;;16.69;33.07;100044.22;5056805;28;20031;-93
2023/01/10 08:55:34;;;;;;;2.70;1.90;;;;;;;16.78;33.01;100046.53;5040101;28;20020;-92
2023/01/10 08:58:00;;;;;;;2.53;1.80;;;;;;;16.74;32.98;100045.38;5056739;28;20028;-92
2023/01/10 09:00:26;;;;;;;2.83;2.20;;;;;;;16.81;33.08;100046.09;5056199;28;20025;-90
2023/01/10 09:02:54;;;;;;;3.63;2.13;;;;;;;16.70;33.07;100029.66;5056370;28;20021;-93
2023/01/10 09:05:19;;;;;;;3.13;2.20;;;;;;;16.75;33.01;100039.75;5056413;28;20050;-92
2023/01/10 09:07:45;;;;;;;2.45;1.80;;;;;;;16.67;32.78;100030.13;5039794;28;20042;-92
2023/01/10 09:10:11;;;;;;;2.53;2.03;;;;;;;16.75;32.86;100047.00;5056208;28;20021;-92
2023/01/10 09:12:55;;;;;;;3.13;1.92;;;;;;;16.73;32.94;100039.19;5039218;28;20108;-91
2023/01/10 09:15:25;;;;;;;3.17;2.10;;;;;;;16.74;33.05;100035.41;5058860;28;20081;-91
2023/01/10 09:17:58;;;;;;;3.10;2.15;;;;;;;16.77;32.82;100039.53;5039806;28;20029;-92
2023/01/10 09:20:24;;;;;;;3.13;2.20;;;;;;;16.79;32.89;100042.81;5055469;28;20129;-92
2023/01/10 09:22:50;;;;;;;2.50;2.00;;;;;;;16.80;33.18;100039.03;5056162;28;20100;-91
2023/01/10 09:25:16;;;;;;;2.25;2.03;;;;;;;16.78;33.12;100035.75;5055897;28;20490;-92
2023/01/10 09:27:41;;;;;;;3.30;2.05;;;;;;;16.82;32.97;100042.34;5055997;28;20418;-92
2023/01/10 09:30:07;;;;;;;3.30;1.98;;;;;;;16.76;33.01;100029.78;5039071;28;20029;-91
2023/01/10 09:32:33;;;;;;;3.30;2.10;;;;;;;16.75;32.92;100025.44;5039567;28;20016;-92
2023/01/10 09:34:59;;;;;;;3.53;2.03;;;;;;;16.79;33.07;100032.81;5055872;28;20165;-92
2023/01/10 09:37:24;;;;;;;3.03;2.15;;;;;;;16.79;32.98;100034.72;5055677;28;20029;-89
2023/01/10 09:39:51;;;;;;;2.63;2.03;;;;;;;16.80;33.05;100034.47;5055811;28;20109;-92
2023/01/10 09:42:29;;;;;;;3.58;2.42;;;;;;;16.78;33.04;100030.34;5055802;28;20031;-91
2023/01/10 09:45:06;;;;;;;3.10;1.95;;;;;;;16.75;32.81;100044.31;5056756;28;20127;-90
2023/01/10 09:47:47;;;;;;;3.65;2.45;;;;;;;16.77;32.92;100039.53;5072310;28;20364;-92
2023/01/10 09:50:16;;;;;;;3.40;2.00;;;;;;;16.81;32.98;100038.78;5073446;28;20034;-92
2023/01/10 09:52:44;;;;;;;2.72;2.10;;;;;;;16.74;32.77;100034.59;5073498;28;20029;-94
2023/01/10 09:55:30;;;;;;;3.03;2.00;;;;;;;16.70;33.24;100035.06;5038923;28;20414;-91
2023/01/10 09:57:58;;;;;;;4.20;2.45;;;;;;;16.69;32.86;100022.66;5057101;28;20399;-93
2023/01/10 10:00:39;;;;;;;2.28;1.90;;;;;;;16.74;33.17;100015.72;5038740;28;20025;-93
2023/01/10 10:03:28;;;;;;;2.83;2.03;;;;;;;16.73;33.17;100005.97;5055478;28;20028;-91
2023/01/10 10:05:54;;;;;;;2.90;2.20;;;;;;;16.81;33.21;100024.50;5057331;28;20067;-92
2023/01/10 10:08:20;;;;;;;2.45;1.92;;;;;;;16.73;33.14;100006.81;5038510;28;20028;-91
2023/01/10 10:10:58;;;;;;;2.85;2.00;;;;;;;16.82;33.15;100016.16;5055133;28;20368;-91
2023/01/10 10:13:54;;;;;;;3.28;1.85;;;;;;;16.82;33.10;100018.03;5071894;28;20189;-91
2023/01/10 10:16:32;;;;;;;3.05;1.90;;;;;;;16.83;33.01;100019.66;5040212;28;20025;-92
2023/01/10 10:19:12;;;;;;;3.15;1.90;;;;;;;16.81;33.10;100011.00;5072961;28;20040;-92
2023/01/10 10:21:54;;;;;;;2.50;1.92;;;;;;;16.77;33.06;100007.16;5072967;28;20041;-91
2023/01/10 10:24:45;;;;;;;2.90;2.05;;;;;;;16.76;33.28;100000.09;5055712;28;20030;-91
2023/01/10 10:27:49;;;;;;;2.95;1.85;;;;;;;16.82;33.13;100005.38;5071409;28;20044;-91
2023/01/10 10:30:19;;;;;;;2.77;2.07;;;;;;;16.78;33.08;99993.41;5064299;28;20095;-92
2023/01/10 10:32:44;;;;;;;2.70;1.95;;;;;;;16.82;32.90;99999.16;5054799;28;20024;-92
2023/01/10 10:35:16;;;;;;;2.88;2.28;;;;;;;16.85;32.87;99987.88;5071702;28;20036;-91
2023/01/10 10:37:45;;;;;;;2.58;1.92;;;;;;;16.82;33.17;99989.16;5071960;28;20475;-91
2023/01/10 10:40:10;;;;;;;3.25;1.98;;;;;;;16.85;33.08;99982.50;5055239;28;20032;-91
2023/01/10 10:42:38;;;;;;;2.13;1.90;;;;;;;16.75;33.22;99971.47;5072844;28;20090;-92
2023/01/10 10:45:16;;;;;;;4.68;2.25;;;;;;;16.74;33.01;99983.31;5038172;28;20021;-92
2023/01/10 10:47:42;;;;;;;3.67;2.20;;;;;;;16.83;33.01;100006.19;5056392;28;20081;-91
2023/01/10 10:50:14;;;;;;;2.42;1.90;;;;;;;16.83;33.02;99995.38;5038291;28;20024;-91
2023/01/10 10:52:40;;;;;;;3.22;2.25;;;;;;;16.79;33.10;99991.53;5072762;28;20043;-92
2023/01/10 10:55:06;;;;;;;3.42;2.00;;;;;;;16.78;33.08;99996.13;5038144;28;20020;-92
2023/01/10 10:57:33;;;;;;;3.28;1.88;;;;;;;16.75;33.04;99976.84;5054765;28;20422;-91
2023/01/10 10:59:59;;;;;;;2.50;1.92;;;;;;;16.75;33.17;99975.00;5037919;28;20024;-92
2023/01/10 11:02:29;;;;;;;4.82;2.17;;;;;;;16.84;32.95;99994.38;5038009;28;20043;-92
2023/01/10 11:05:00;;;;;;;3.80;2.08;;;;;;;16.80;33.18;99988.59;5037949;28;20033;-92
2023/01/10 11:07:28;;;;;;;2.83;2.00;;;;;;;16.52;33.04;99951.56;5038245;28;20021;-91
2023/01/10 11:10:15;;;;;;;3.35;2.28;;;;;;;16.74;33.07;99975.22;5037935;28;20491;-91
2023/01/10 11:12:44;;;;;;;3.17;2.13;;;;;;;16.79;33.00;99983.44;5043585;28;20139;-91
2023/01/10 11:15:10;;;;;;;4.40;2.15;;;;;;;16.83;33.30;99988.13;5054895;28;20402;-92
2023/01/10 11:17:39;;;;;;;2.65;1.98;;;;;;;16.82;33.12;99989.16;5054325;28;20023;-92
2023/01/10 11:20:15;;;;;;;3.00;1.90;;;;;;;16.85;33.30;99991.44;5038576;28;20403;-92
2023/01/10 11:22:59;;;;;;;2.95;2.30;;;;;;;16.78;33.06;99995.28;5055714;28;20025;-92
2023/01/10 11:25:26;;;;;;;2.47;1.97;;;;;;;16.73;32.95;99979.81;5039105;28;20060;-91
2023/01/10 11:27:54;;;;;;;3.28;2.13;;;;;;;16.77;33.06;99980.97;5057486;28;20417;-91
2023/01/10 11:30:28;;;;;;;2.28;1.98;;;;;;;16.76;32.93;99986.59;5071611;28;20085;-91
2023/01/10 11:32:55;;;;;;;3.05;2.00;;;;;;;16.78;33.20;99997.97;5058478;28;20009;-91
2023/01/10 11:35:26;;;;;;;2.78;2.03;;;;;;;16.85;33.30;99994.13;5074581;28;20032;-91
2023/01/10 11:38:05;;;;;;;2.33;1.95;;;;;;;16.80;33.29;99991.28;5060121;28;20021;-92
2023/01/10 11:40:36;;;;;;;2.85;2.25;;;;;;;16.84;33.27;99989.78;5043344;28;20550;-91
2023/01/10 11:43:25;;;;;;;3.42;2.30;;;;;;;16.82;33.27;99993.75;5042416;28;20031;-91